Time;durP1;ratioP1;P1;durP2;ratioP2;P2;SDS_P1;SDS_P2;PMS_P1;PMS_P2;Temp;Humidity;BMP_temperature;BMP_pressure;BME280_temperature;BME280_humidity;BME280_pressure;Samples;Min_cycle;Max_cycle;Signal;HPM_P1;HPM_P2
2023/05/05 00:01:22;;;;;;;62.17;3.00;;;;;;;;;;5071698;28;20468;-70
2023/05/05 00:03:49;;;;;;;60.80;4.07;;;;;;;;;;5071664;28;20462;-70
2023/05/05 00:06:16;;;;;;;57.27;2.60;;;;;;;;;;5071484;28;20489;-70
2023/05/05 00:08:45;;;;;;;57.27;2.17;;;;;;;;;;5071327;28;20451;-70
2023/05/05 00:11:12;;;;;;;57.03;2.30;;;;;;;;;;5071818;28;20480;-70
2023/05/05 00:13:39;;;;;;;57.30;2.50;;;;;;;;;;5071695;28;20823;-70
2023/05/05 00:16:06;;;;;;;57.47;2.00;;;;;;;;;;5071813;28;20470;-69
2023/05/05 00:18:34;;;;;;;57.27;2.60;;;;;;;;;;5071250;28;20991;-69
2023/05/05 00:21:01;;;;;;;57.70;2.47;;;;;;;;;;5071426;28;20564;-69
2023/05/05 00:23:28;;;;;;;57.17;2.20;;;;;;;;;;5071681;28;20448;-69
2023/05/05 00:25:56;;;;;;;57.30;2.40;;;;;;;;;;5071572;28;20479;-70
2023/05/05 00:28:24;;;;;;;58.43;2.30;;;;;;;;;;5071820;28;20449;-70
2023/05/05 00:30:51;;;;;;;57.30;2.33;;;;;;;;;;5071156;28;21018;-69
2023/05/05 00:33:18;;;;;;;57.10;2.20;;;;;;;;;;5071358;28;20454;-70
2023/05/05 00:35:45;;;;;;;57.70;2.50;;;;;;;;;;5071554;28;20440;-70
2023/05/05 00:38:12;;;;;;;57.30;2.20;;;;;;;;;;5071556;28;20443;-69
2023/05/05 00:40:39;;;;;;;57.20;2.27;;;;;;;;;;5071246;28;20467;-70
2023/05/05 00:43:07;;;;;;;57.30;2.30;;;;;;;;;;5071665;28;20447;-70
2023/05/05 00:45:36;;;;;;;56.87;2.00;;;;;;;;;;5071143;28;20447;-70
2023/05/05 00:48:03;;;;;;;57.00;2.10;;;;;;;;;;5071212;28;20455;-70
2023/05/05 00:50:31;;;;;;;57.07;2.20;;;;;;;;;;5071271;28;20467;-69
2023/05/05 00:53:01;;;;;;;57.30;2.03;;;;;;;;;;5071429;28;20454;-69
2023/05/05 00:55:28;;;;;;;57.67;2.20;;;;;;;;;;5071402;28;20452;-70
2023/05/05 00:57:56;;;;;;;58.53;2.80;;;;;;;;;;5071209;28;20447;-70
2023/05/05 01:00:25;;;;;;;57.27;2.27;;;;;;;;;;5070678;28;21002;-70
2023/05/05 01:02:52;;;;;;;57.70;2.40;;;;;;;;;;5069588;28;20462;-69
2023/05/05 01:05:20;;;;;;;58.27;2.40;;;;;;;;;;5073934;28;20451;-70
2023/05/05 01:07:55;;;;;;;57.80;2.70;;;;;;;;;;5074625;28;20489;-70
2023/05/05 01:10:26;;;;;;;57.53;2.50;;;;;;;;;;5074892;28;20814;-70
2023/05/05 01:12:56;;;;;;;57.13;2.20;;;;;;;;;;5074866;28;20451;-70
2023/05/05 01:15:30;;;;;;;57.30;2.30;;;;;;;;;;5074735;28;20454;-70
2023/05/05 01:18:00;;;;;;;57.37;2.40;;;;;;;;;;5074545;28;20451;-69
2023/05/05 01:20:29;;;;;;;57.30;2.20;;;;;;;;;;5074700;28;20471;-70
2023/05/05 01:22:59;;;;;;;57.70;2.33;;;;;;;;;;5074596;28;20459;-70
2023/05/05 01:25:32;;;;;;;56.67;1.90;;;;;;;;;;5074490;28;20516;-70
2023/05/05 01:28:17;;;;;;;57.10;1.90;;;;;;;;;;5074106;28;20506;-69
2023/05/05 01:30:59;;;;;;;57.17;2.03;;;;;;;;;;5073918;28;20463;-70
2023/05/05 01:33:29;;;;;;;57.23;2.27;;;;;;;;;;5072118;28;20470;-69
2023/05/05 01:35:58;;;;;;;57.07;2.20;;;;;;;;;;5074438;28;20462;-70
2023/05/05 01:38:28;;;;;;;58.07;2.77;;;;;;;;;;5074148;28;21061;-70
2023/05/05 01:40:58;;;;;;;58.27;3.47;;;;;;;;;;5073808;28;20987;-70
2023/05/05 01:43:27;;;;;;;57.23;2.47;;;;;;;;;;5074322;28;20449;-69
2023/05/05 01:45:55;;;;;;;57.20;2.40;;;;;;;;;;5074235;28;20453;-70
2023/05/05 01:48:23;;;;;;;57.27;2.30;;;;;;;;;;5074156;28;20795;-70
2023/05/05 01:50:53;;;;;;;57.23;2.33;;;;;;;;;;5073648;28;20474;-70
2023/05/05 01:53:21;;;;;;;57.50;2.50;;;;;;;;;;5073950;28;20443;-70
2023/05/05 01:55:50;;;;;;;57.90;3.43;;;;;;;;;;5073824;28;20477;-69
2023/05/05 01:58:17;;;;;;;57.37;2.33;;;;;;;;;;5073911;28;20443;-70
2023/05/05 02:00:44;;;;;;;57.37;2.70;;;;;;;;;;5072531;28;20487;-69
2023/05/05 02:03:12;;;;;;;57.30;2.20;;;;;;;;;;5072768;28;20443;-70
2023/05/05 02:05:40;;;;;;;58.70;2.77;;;;;;;;;;5073772;28;20830;-69
2023/05/05 02:08:09;;;;;;;57.40;2.40;;;;;;;;;;5074101;28;20439;-69
2023/05/05 02:10:39;;;;;;;57.27;2.27;;;;;;;;;;5073310;28;21003;-69
2023/05/05 02:13:07;;;;;;;57.80;3.40;;;;;;;;;;5073543;28;20982;-70
2023/05/05 02:15:35;;;;;;;57.50;2.40;;;;;;;;;;5073297;28;20454;-69
2023/05/05 02:18:03;;;;;;;57.70;2.80;;;;;;;;;;5073124;28;20493;-70
2023/05/05 02:20:31;;;;;;;57.87;2.77;;;;;;;;;;5073120;28;20789;-70
2023/05/05 02:22:59;;;;;;;57.23;2.27;;;;;;;;;;5073537;28;20443;-69
2023/05/05 02:25:32;;;;;;;57.40;2.33;;;;;;;;;;5073536;28;20464;-70
2023/05/05 02:28:01;;;;;;;57.50;2.50;;;;;;;;;;5073344;28;20450;-70
2023/05/05 02:30:29;;;;;;;57.30;2.40;;;;;;;;;;5072994;28;20463;-69
2023/05/05 02:32:58;;;;;;;61.13;3.20;;;;;;;;;;5073119;28;20813;-69
2023/05/05 02:35:29;;;;;;;57.47;2.60;;;;;;;;;;5073379;28;20824;-69
2023/05/05 02:38:01;;;;;;;57.33;2.47;;;;;;;;;;5073181;28;20483;-69
2023/05/05 02:40:31;;;;;;;57.50;2.30;;;;;;;;;;5072800;28;20471;-69
2023/05/05 02:43:00;;;;;;;57.60;2.33;;;;;;;;;;5073040;28;20823;-69
2023/05/05 02:45:28;;;;;;;57.17;2.20;;;;;;;;;;5072818;28;20542;-69
2023/05/05 02:47:55;;;;;;;57.37;2.10;;;;;;;;;;5072959;28;20440;-69
2023/05/05 02:50:22;;;;;;;57.27;2.20;;;;;;;;;;5072408;28;20983;-69
2023/05/05 02:52:49;;;;;;;57.30;2.60;;;;;;;;;;5072824;28;20452;-69
2023/05/05 02:55:16;;;;;;;57.30;2.23;;;;;;;;;;5072975;28;20487;-69
2023/05/05 02:57:49;;;;;;;56.87;2.10;;;;;;;;;;5072528;28;20479;-69
2023/05/05 03:00:19;;;;;;;58.47;2.70;;;;;;;;;;5072426;28;20471;-69
2023/05/05 03:02:54;;;;;;;57.47;2.70;;;;;;;;;;5072752;28;20440;-69
2023/05/05 03:05:23;;;;;;;57.67;2.43;;;;;;;;;;5072522;28;20470;-69
2023/05/05 03:07:54;;;;;;;57.07;2.67;;;;;;;;;;5072486;28;20452;-69
2023/05/05 03:10:22;;;;;;;57.40;2.43;;;;;;;;;;5072047;28;20809;-69
2023/05/05 03:12:53;;;;;;;57.30;2.20;;;;;;;;;;5072554;28;20447;-69
2023/05/05 03:15:22;;;;;;;57.27;2.03;;;;;;;;;;5072564;28;20459;-69
2023/05/05 03:17:51;;;;;;;57.57;2.77;;;;;;;;;;5072380;28;20493;-69
2023/05/05 03:20:19;;;;;;;57.13;2.00;;;;;;;;;;5071951;28;20475;-69
2023/05/05 03:22:46;;;;;;;56.90;2.27;;;;;;;;;;5072105;28;20458;-69
2023/05/05 03:25:13;;;;;;;57.17;2.47;;;;;;;;;;5072235;28;20467;-69
2023/05/05 03:27:41;;;;;;;57.33;2.30;;;;;;;;;;5072236;28;20443;-69
2023/05/05 03:30:10;;;;;;;56.73;2.20;;;;;;;;;;5071810;28;20474;-69
2023/05/05 03:32:37;;;;;;;57.40;2.70;;;;;;;;;;5072294;28;20530;-69
2023/05/05 03:35:05;;;;;;;57.37;2.43;;;;;;;;;;5072105;28;20452;-69
2023/05/05 03:37:32;;;;;;;57.53;2.40;;;;;;;;;;5072014;28;20487;-69
2023/05/05 03:39:59;;;;;;;58.00;2.53;;;;;;;;;;5071841;28;20861;-69
2023/05/05 03:42:26;;;;;;;57.03;2.30;;;;;;;;;;5072096;28;20448;-69
2023/05/05 03:44:53;;;;;;;57.37;2.10;;;;;;;;;;5071898;28;20454;-69
2023/05/05 03:47:23;;;;;;;59.60;3.00;;;;;;;;;;5071957;28;20533;-69
2023/05/05 03:49:50;;;;;;;56.77;2.40;;;;;;;;;;5071407;28;20506;-69
2023/05/05 03:52:17;;;;;;;57.37;2.30;;;;;;;;;;5071798;28;20455;-69
2023/05/05 03:54:45;;;;;;;60.33;3.93;;;;;;;;;;5072018;28;20451;-68
2023/05/05 03:57:13;;;;;;;57.17;2.30;;;;;;;;;;5071933;28;20483;-69
2023/05/05 03:59:40;;;;;;;86.23;3.90;;;;;;;;;;5071419;28;20471;-69
2023/05/05 04:02:07;;;;;;;57.37;2.83;;;;;;;;;;5072042;28;20539;-69
2023/05/05 04:04:35;;;;;;;57.47;2.40;;;;;;;;;;5071729;28;20534;-69
2023/05/05 04:07:03;;;;;;;59.60;3.07;;;;;;;;;;5071664;28;20447;-69
2023/05/05 04:09:30;;;;;;;59.70;2.70;;;;;;;;;;5071650;28;20467;-69
2023/05/05 04:11:57;;;;;;;58.00;2.80;;;;;;;;;;5071641;28;20459;-69
2023/05/05 04:14:24;;;;;;;59.70;4.10;;;;;;;;;;5071687;28;20447;-69
2023/05/05 04:16:51;;;;;;;57.33;2.27;;;;;;;;;;5071582;28;20493;-69
2023/05/05 04:19:18;;;;;;;58.10;2.73;;;;;;;;;;5070994;28;20947;-68
2023/05/05 04:21:47;;;;;;;57.60;2.90;;;;;;;;;;5071720;28;20547;-69
2023/05/05 04:24:14;;;;;;;57.33;2.27;;;;;;;;;;5071499;28;20459;-69
2023/05/05 04:26:41;;;;;;;57.20;2.10;;;;;;;;;;5071636;28;20443;-69
2023/05/05 04:29:08;;;;;;;57.80;2.97;;;;;;;;;;5071229;28;20454;-69
2023/05/05 04:31:35;;;;;;;56.73;2.20;;;;;;;;;;5071399;28;20458;-69
2023/05/05 04:34:02;;;;;;;57.03;2.23;;;;;;;;;;5071714;28;20817;-69
2023/05/05 04:36:30;;;;;;;57.80;3.47;;;;;;;;;;5071649;28;20444;-68
2023/05/05 04:38:58;;;;;;;56.87;2.10;;;;;;;;;;5071658;28;20511;-69
2023/05/05 04:41:25;;;;;;;57.40;2.30;;;;;;;;;;5075158;28;20477;-69
2023/05/05 04:43:53;;;;;;;60.60;3.70;;;;;;;;;;5075635;28;20474;-69
2023/05/05 04:46:21;;;;;;;57.03;2.30;;;;;;;;;;5075089;28;20462;-68
2023/05/05 04:48:48;;;;;;;57.10;2.00;;;;;;;;;;5075050;28;20444;-69
2023/05/05 04:51:15;;;;;;;56.87;2.27;;;;;;;;;;5075230;28;20477;-69
2023/05/05 04:53:42;;;;;;;61.63;3.27;;;;;;;;;;5074967;28;20443;-69
2023/05/05 04:56:10;;;;;;;57.03;2.13;;;;;;;;;;5074997;28;20965;-69
2023/05/05 04:58:37;;;;;;;57.03;2.20;;;;;;;;;;5074583;28;20482;-69
2023/05/05 05:01:05;;;;;;;57.97;2.60;;;;;;;;;;5074881;28;20468;-69
2023/05/05 05:03:32;;;;;;;56.67;2.30;;;;;;;;;;5075021;28;20447;-69
2023/05/05 05:05:59;;;;;;;57.23;2.30;;;;;;;;;;5074952;28;20478;-69
2023/05/05 05:08:26;;;;;;;57.50;3.00;;;;;;;;;;5074482;28;20447;-68
2023/05/05 05:10:53;;;;;;;57.17;2.57;;;;;;;;;;5074414;28;20478;-69
2023/05/05 05:13:22;;;;;;;56.97;1.93;;;;;;;;;;5074565;28;20458;-68
2023/05/05 05:15:49;;;;;;;57.03;2.20;;;;;;;;;;5074614;28;20457;-69
2023/05/05 05:18:16;;;;;;;57.20;2.20;;;;;;;;;;5074605;28;20861;-69
2023/05/05 05:20:43;;;;;;;57.07;2.27;;;;;;;;;;5074393;28;20474;-69
2023/05/05 05:23:10;;;;;;;57.20;2.60;;;;;;;;;;5074446;28;20952;-69
2023/05/05 05:25:37;;;;;;;57.30;2.40;;;;;;;;;;5074964;28;20455;-68
2023/05/05 05:28:04;;;;;;;57.20;2.50;;;;;;;;;;5074290;28;20450;-68
2023/05/05 05:30:33;;;;;;;57.30;2.77;;;;;;;;;;5074258;28;20478;-69
2023/05/05 05:33:00;;;;;;;57.27;2.87;;;;;;;;;;5074487;28;20454;-69
2023/05/05 05:35:27;;;;;;;56.83;2.23;;;;;;;;;;5074427;28;20474;-69
2023/05/05 05:37:54;;;;;;;57.10;2.47;;;;;;;;;;5074224;28;20494;-69
2023/05/05 05:40:21;;;;;;;57.30;2.60;;;;;;;;;;5073770;28;20828;-69
2023/05/05 05:42:48;;;;;;;64.30;3.07;;;;;;;;;;5074419;28;20451;-69
2023/05/05 05:45:16;;;;;;;57.13;2.33;;;;;;;;;;5074270;28;20481;-69
2023/05/05 05:47:44;;;;;;;58.03;2.60;;;;;;;;;;5074011;28;20955;-69
2023/05/05 05:50:11;;;;;;;57.20;2.30;;;;;;;;;;5073205;28;20521;-69
2023/05/05 05:52:39;;;;;;;57.17;2.10;;;;;;;;;;5073247;28;20826;-69
2023/05/05 05:55:06;;;;;;;56.97;2.13;;;;;;;;;;5073911;28;20439;-69
2023/05/05 05:57:33;;;;;;;57.30;2.40;;;;;;;;;;5074040;28;20483;-69
2023/05/05 06:00:01;;;;;;;57.03;2.10;;;;;;;;;;5073768;28;20460;-69
2023/05/05 06:02:28;;;;;;;58.67;2.53;;;;;;;;;;5074055;28;20449;-69
2023/05/05 06:04:56;;;;;;;57.40;2.40;;;;;;;;;;5073823;28;20820;-70
2023/05/05 06:07:24;;;;;;;57.13;2.20;;;;;;;;;;5073595;28;20443;-67
2023/05/05 06:09:51;;;;;;;57.20;2.30;;;;;;;;;;5073490;28;20479;-67
2023/05/05 06:12:18;;;;;;;57.07;2.10;;;;;;;;;;5073747;28;20447;-67
2023/05/05 06:14:45;;;;;;;57.77;2.80;;;;;;;;;;5073515;28;20458;-67
2023/05/05 06:17:12;;;;;;;57.30;2.40;;;;;;;;;;5073371;28;20940;-67
2023/05/05 06:19:39;;;;;;;57.27;2.23;;;;;;;;;;5073095;28;20471;-67
2023/05/05 06:22:08;;;;;;;58.67;3.57;;;;;;;;;;5073418;28;20574;-67
2023/05/05 06:24:35;;;;;;;57.27;2.30;;;;;;;;;;5073569;28;20459;-67
2023/05/05 06:27:02;;;;;;;57.37;2.93;;;;;;;;;;5073451;28;20451;-67
2023/05/05 06:29:29;;;;;;;57.30;2.70;;;;;;;;;;5072972;28;20478;-68
2023/05/05 06:31:56;;;;;;;57.50;2.40;;;;;;;;;;5073321;28;20447;-67
2023/05/05 06:34:23;;;;;;;56.87;2.27;;;;;;;;;;5073104;28;20458;-67
2023/05/05 06:36:50;;;;;;;57.70;2.80;;;;;;;;;;5073071;28;20446;-68
2023/05/05 06:39:19;;;;;;;57.27;2.40;;;;;;;;;;5072881;28;20852;-68
2023/05/05 06:41:46;;;;;;;60.50;3.43;;;;;;;;;;5073229;28;20447;-69
2023/05/05 06:44:13;;;;;;;57.70;3.10;;;;;;;;;;5072914;28;20809;-69
2023/05/05 06:46:42;;;;;;;57.27;2.40;;;;;;;;;;5072981;28;20455;-69
2023/05/05 06:49:09;;;;;;;57.90;3.37;;;;;;;;;;5072284;28;20513;-68
2023/05/05 06:51:36;;;;;;;57.30;2.43;;;;;;;;;;5072905;28;20444;-69
2023/05/05 06:54:03;;;;;;;59.77;3.13;;;;;;;;;;5072730;28;20478;-68
2023/05/05 06:56:32;;;;;;;57.40;2.60;;;;;;;;;;5072364;28;20819;-68
2023/05/05 06:58:59;;;;;;;57.50;2.67;;;;;;;;;;5072232;28;20483;-68
2023/05/05 07:01:26;;;;;;;60.13;2.60;;;;;;;;;;5072518;28;20473;-68
2023/05/05 07:03:53;;;;;;;57.70;2.53;;;;;;;;;;5072186;28;20936;-69
2023/05/05 07:06:20;;;;;;;58.77;3.30;;;;;;;;;;5072648;28;20462;-69
2023/05/05 07:08:48;;;;;;;57.10;2.20;;;;;;;;;;5072294;28;20447;-69
2023/05/05 07:11:15;;;;;;;57.10;2.27;;;;;;;;;;5072484;28;20489;-69
2023/05/05 07:13:43;;;;;;;56.90;2.20;;;;;;;;;;5072442;28;20455;-68
2023/05/05 07:16:10;;;;;;;57.20;2.50;;;;;;;;;;5072234;28;20482;-69
2023/05/05 07:18:37;;;;;;;57.20;2.53;;;;;;;;;;5072064;28;20498;-68
2023/05/05 07:21:05;;;;;;;68.90;3.93;;;;;;;;;;5072329;28;20467;-69
2023/05/05 07:23:33;;;;;;;57.40;2.77;;;;;;;;;;5072102;28;20927;-68
2023/05/05 07:26:00;;;;;;;57.40;2.23;;;;;;;;;;5072308;28;20487;-69
2023/05/05 07:28:27;;;;;;;58.80;2.80;;;;;;;;;;5072105;28;20501;-68
2023/05/05 07:30:56;;;;;;;57.17;2.60;;;;;;;;;;5071801;28;20472;-68
2023/05/05 07:33:23;;;;;;;57.03;2.57;;;;;;;;;;5072246;28;20819;-69
2023/05/05 07:35:50;;;;;;;57.33;2.37;;;;;;;;;;5072019;28;20543;-68
2023/05/05 07:38:17;;;;;;;57.70;2.93;;;;;;;;;;5072141;28;20479;-68
2023/05/05 07:40:44;;;;;;;57.67;2.80;;;;;;;;;;5071825;28;20464;-68
2023/05/05 07:43:11;;;;;;;57.20;2.20;;;;;;;;;;5071979;28;20489;-68
2023/05/05 07:45:38;;;;;;;57.27;2.77;;;;;;;;;;5072004;28;20451;-68
2023/05/05 07:48:07;;;;;;;57.10;2.30;;;;;;;;;;5072068;28;20439;-68
2023/05/05 07:50:34;;;;;;;57.53;2.70;;;;;;;;;;5071652;28;20467;-68
2023/05/05 07:53:02;;;;;;;57.20;2.53;;;;;;;;;;5071890;28;20462;-68
2023/05/05 07:55:29;;;;;;;57.27;2.40;;;;;;;;;;5071862;28;20474;-68
2023/05/05 07:57:56;;;;;;;57.40;2.77;;;;;;;;;;5071590;28;20448;-68
2023/05/05 08:00:23;;;;;;;57.40;2.90;;;;;;;;;;5071897;28;20464;-68
2023/05/05 08:02:50;;;;;;;56.77;2.30;;;;;;;;;;5072042;28;20455;-68
2023/05/05 08:05:19;;;;;;;57.03;2.23;;;;;;;;;;5071721;28;20444;-68
2023/05/05 08:07:46;;;;;;;57.70;3.33;;;;;;;;;;5072453;28;20443;-68
2023/05/05 08:10:13;;;;;;;57.07;2.40;;;;;;;;;;5071417;28;20979;-68
2023/05/05 08:12:40;;;;;;;57.50;2.77;;;;;;;;;;5071627;28;20451;-69
2023/05/05 08:15:08;;;;;;;57.50;2.10;;;;;;;;;;5074186;28;20461;-68
2023/05/05 08:17:46;;;;;;;58.20;2.70;;;;;;;;;;5076006;28;20448;-68
2023/05/05 08:20:13;;;;;;;57.57;2.23;;;;;;;;;;5075231;28;20486;-68
2023/05/05 08:22:42;;;;;;;57.57;2.40;;;;;;;;;;5075591;28;20443;-68
2023/05/05 08:25:10;;;;;;;56.93;2.20;;;;;;;;;;5075451;28;20455;-68
2023/05/05 08:27:38;;;;;;;58.00;2.73;;;;;;;;;;5075932;28;20469;-68
2023/05/05 08:30:05;;;;;;;56.80;2.10;;;;;;;;;;5075186;28;20499;-68
2023/05/05 08:32:32;;;;;;;56.97;2.30;;;;;;;;;;5075501;28;20831;-69
2023/05/05 08:35:00;;;;;;;59.50;2.60;;;;;;;;;;5075409;28;20443;-68
2023/05/05 08:37:27;;;;;;;60.60;3.03;;;;;;;;;;5075266;28;20453;-68
2023/05/05 08:39:56;;;;;;;58.00;2.60;;;;;;;;;;5075058;28;20482;-68
2023/05/05 08:42:23;;;;;;;59.33;2.50;;;;;;;;;;5075465;28;20451;-68
2023/05/05 08:44:51;;;;;;;57.07;2.10;;;;;;;;;;5075357;28;20465;-68
2023/05/05 08:47:18;;;;;;;57.97;2.90;;;;;;;;;;5075201;28;20455;-68
2023/05/05 08:49:46;;;;;;;57.33;2.23;;;;;;;;;;5074696;28;20470;-68
2023/05/05 08:52:14;;;;;;;56.87;2.10;;;;;;;;;;5075013;28;20447;-69
2023/05/05 08:54:44;;;;;;;58.47;2.83;;;;;;;;;;5075035;28;20943;-69
2023/05/05 08:57:15;;;;;;;58.10;2.60;;;;;;;;;;5075112;28;20967;-69
2023/05/05 08:59:43;;;;;;;57.57;2.50;;;;;;;;;;5074643;28;20859;-69
2023/05/05 09:02:10;;;;;;;57.20;2.60;;;;;;;;;;5075030;28;20832;-69
2023/05/05 09:04:37;;;;;;;59.17;3.33;;;;;;;;;;5074710;28;20462;-69
2023/05/05 09:07:05;;;;;;;59.57;3.03;;;;;;;;;;5075025;28;20542;-68
2023/05/05 09:09:32;;;;;;;58.50;3.17;;;;;;;;;;5074664;28;20466;-69
2023/05/05 09:12:00;;;;;;;57.17;2.43;;;;;;;;;;5074941;28;20453;-69
2023/05/05 09:14:29;;;;;;;57.10;2.60;;;;;;;;;;5074685;28;20940;-69
2023/05/05 09:16:56;;;;;;;57.17;2.43;;;;;;;;;;5074571;28;20451;-69
2023/05/05 09:19:23;;;;;;;56.97;2.40;;;;;;;;;;5074372;28;20851;-69
2023/05/05 09:21:50;;;;;;;57.10;2.23;;;;;;;;;;5074769;28;20443;-69
2023/05/05 09:24:17;;;;;;;56.97;2.00;;;;;;;;;;5074583;28;20463;-69
2023/05/05 09:26:45;;;;;;;56.80;1.80;;;;;;;;;;5074211;28;20939;-69
2023/05/05 09:29:18;;;;;;;56.67;1.97;;;;;;;;;;5074102;28;20447;-69
2023/05/05 09:32:04;;;;;;;57.07;2.40;;;;;;;;;;5074403;28;20489;-69
2023/05/05 09:34:31;;;;;;;56.77;2.07;;;;;;;;;;5074698;28;20823;-69
2023/05/05 09:36:58;;;;;;;56.97;2.27;;;;;;;;;;5074522;28;20448;-69
2023/05/05 09:39:25;;;;;;;57.30;2.83;;;;;;;;;;5073964;28;20483;-69
2023/05/05 09:41:52;;;;;;;56.83;2.20;;;;;;;;;;5074269;28;20443;-69
2023/05/05 09:44:33;;;;;;;56.97;2.33;;;;;;;;;;5066531;28;20535;-69
2023/05/05 09:47:01;;;;;;;57.17;2.67;;;;;;;;;;5069775;28;20451;-69
2023/05/05 09:49:29;;;;;;;57.50;2.60;;;;;;;;;;5074328;28;20459;-69
2023/05/05 09:51:56;;;;;;;56.70;1.97;;;;;;;;;;5074540;28;20444;-69
2023/05/05 09:54:24;;;;;;;57.50;2.37;;;;;;;;;;5073928;28;20447;-69
2023/05/05 09:56:52;;;;;;;56.93;2.10;;;;;;;;;;5073943;28;20487;-67
2023/05/05 09:59:19;;;;;;;56.50;1.97;;;;;;;;;;5073727;28;20491;-67
2023/05/05 10:01:47;;;;;;;58.10;2.97;;;;;;;;;;5074212;28;20475;-67
2023/05/05 10:04:25;;;;;;;57.60;2.57;;;;;;;;;;5073875;28;20451;-67
2023/05/05 10:06:52;;;;;;;57.00;1.90;;;;;;;;;;5073957;28;20451;-68
2023/05/05 10:09:19;;;;;;;57.07;2.10;;;;;;;;;;5073330;28;20523;-70
2023/05/05 10:11:47;;;;;;;56.87;2.00;;;;;;;;;;5073768;28;20904;-70
2023/05/05 10:14:15;;;;;;;57.50;2.30;;;;;;;;;;5073812;28;20796;-70
2023/05/05 10:16:47;;;;;;;57.17;2.60;;;;;;;;;;5073689;28;20453;-70
2023/05/05 10:19:15;;;;;;;56.97;2.20;;;;;;;;;;5073172;28;20487;-68
2023/05/05 10:21:47;;;;;;;57.00;2.00;;;;;;;;;;5073434;28;21006;-68
2023/05/05 10:24:17;;;;;;;56.67;2.20;;;;;;;;;;5073546;28;20459;-67
2023/05/05 10:26:44;;;;;;;57.07;2.20;;;;;;;;;;5073620;28;20447;-67
2023/05/05 10:29:14;;;;;;;57.10;2.10;;;;;;;;;;5073085;28;20512;-68
2023/05/05 10:31:42;;;;;;;57.17;2.30;;;;;;;;;;5073261;28;20473;-68
2023/05/05 10:34:11;;;;;;;56.57;2.10;;;;;;;;;;5073064;28;20447;-68
2023/05/05 10:36:39;;;;;;;57.20;2.50;;;;;;;;;;5072974;28;20447;-67
2023/05/05 10:39:09;;;;;;;57.30;2.10;;;;;;;;;;5072738;28;20525;-67
2023/05/05 10:41:37;;;;;;;56.83;1.90;;;;;;;;;;5073197;28;20491;-70
2023/05/05 10:44:05;;;;;;;55.97;2.03;;;;;;;;;;5072962;28;20526;-70
2023/05/05 10:46:32;;;;;;;56.93;2.30;;;;;;;;;;5072902;28;20451;-70
2023/05/05 10:49:03;;;;;;;57.03;2.27;;;;;;;;;;5072715;28;20443;-70
2023/05/05 10:51:33;;;;;;;57.10;2.40;;;;;;;;;;5073012;28;20463;-70
2023/05/05 10:54:02;;;;;;;57.10;2.50;;;;;;;;;;5072934;28;20454;-68
2023/05/05 10:56:33;;;;;;;56.93;2.13;;;;;;;;;;5072739;28;20447;-68
2023/05/05 10:59:00;;;;;;;56.53;1.90;;;;;;;;;;5072167;28;20487;-68
2023/05/05 11:01:32;;;;;;;57.17;2.87;;;;;;;;;;5072468;28;20995;-68
2023/05/05 11:04:17;;;;;;;59.63;2.47;;;;;;;;;;5072743;28;20454;-68
2023/05/05 11:07:08;;;;;;;56.67;2.30;;;;;;;;;;5072609;28;20450;-68
2023/05/05 11:09:37;;;;;;;57.30;2.30;;;;;;;;;;5056842;28;20467;-68
2023/05/05 11:12:06;;;;;;;58.07;2.27;;;;;;;;;;5072443;28;20450;-68
2023/05/05 11:14:33;;;;;;;56.87;2.00;;;;;;;;;;5072521;28;20443;-68
2023/05/05 11:17:00;;;;;;;56.87;2.33;;;;;;;;;;5072378;28;20435;-68
2023/05/05 11:19:47;;;;;;;56.97;2.20;;;;;;;;;;5071815;28;20525;-68
2023/05/05 11:22:15;;;;;;;57.07;2.50;;;;;;;;;;5072088;28;20493;-67
2023/05/05 11:24:42;;;;;;;56.97;2.20;;;;;;;;;;5072085;28;20467;-68
2023/05/05 11:27:10;;;;;;;56.97;2.10;;;;;;;;;;5072327;28;20448;-68
2023/05/05 11:30:11;;;;;;;56.70;2.23;;;;;;;;;;5071847;28;20463;-68
2023/05/05 11:32:38;;;;;;;56.90;2.10;;;;;;;;;;5010203;28;20964;-67
2023/05/05 11:35:06;;;;;;;57.40;2.50;;;;;;;;;;5010146;28;20458;-68
2023/05/05 11:37:33;;;;;;;57.03;2.33;;;;;;;;;;5010049;28;20442;-67
2023/05/05 11:40:04;;;;;;;56.77;2.00;;;;;;;;;;5009627;28;20497;-68
2023/05/05 11:42:33;;;;;;;57.47;2.20;;;;;;;;;;5010162;28;20442;-68
2023/05/05 11:45:00;;;;;;;56.80;1.90;;;;;;;;;;5009713;28;20447;-68
2023/05/05 11:47:28;;;;;;;56.87;2.30;;;;;;;;;;5009934;28;20447;-68
2023/05/05 11:49:56;;;;;;;56.57;2.13;;;;;;;;;;5009262;28;20474;-68
2023/05/05 11:52:26;;;;;;;56.87;2.03;;;;;;;;;;5009765;28;20450;-68
2023/05/05 11:54:53;;;;;;;57.07;2.00;;;;;;;;;;5009953;28;20450;-68
2023/05/05 11:57:20;;;;;;;59.80;2.77;;;;;;;;;;5009720;28;20509;-68
2023/05/05 11:59:54;;;;;;;57.67;2.77;;;;;;;;;;5009195;28;20500;-68
2023/05/05 12:02:22;;;;;;;58.63;3.10;;;;;;;;;;5009710;28;20446;-68
2023/05/05 12:04:49;;;;;;;62.70;2.17;;;;;;;;;;5071497;28;20975;-68
2023/05/05 12:07:16;;;;;;;57.10;2.50;;;;;;;;;;5071739;28;20443;-69
2023/05/05 12:09:44;;;;;;;56.70;2.00;;;;;;;;;;5071300;28;20463;-69
2023/05/05 12:12:11;;;;;;;57.20;2.40;;;;;;;;;;5068304;28;20485;-69
2023/05/05 12:14:46;;;;;;;56.67;2.20;;;;;;;;;;5072008;28;20447;-68
2023/05/05 12:17:15;;;;;;;57.30;2.43;;;;;;;;;;5071768;28;20820;-68
2023/05/05 12:19:48;;;;;;;56.37;2.20;;;;;;;;;;5071180;28;20486;-68
2023/05/05 12:22:20;;;;;;;56.90;1.90;;;;;;;;;;5071464;28;20457;-68
2023/05/05 12:24:53;;;;;;;58.27;2.77;;;;;;;;;;5071407;28;20820;-68
2023/05/05 12:27:20;;;;;;;57.40;2.40;;;;;;;;;;5071663;28;20816;-68
2023/05/05 12:29:48;;;;;;;57.20;2.30;;;;;;;;;;5071389;28;20471;-68
2023/05/05 12:32:23;;;;;;;56.73;2.30;;;;;;;;;;5071492;28;20810;-68
2023/05/05 12:34:54;;;;;;;56.77;2.20;;;;;;;;;;5071424;28;20708;-68
2023/05/05 12:37:21;;;;;;;57.30;2.57;;;;;;;;;;5071415;28;20451;-68
2023/05/05 12:39:48;;;;;;;56.27;2.30;;;;;;;;;;5070939;28;20483;-68
2023/05/05 12:42:15;;;;;;;57.77;3.10;;;;;;;;;;5071516;28;20435;-69
2023/05/05 12:44:43;;;;;;;56.47;1.97;;;;;;;;;;5071209;28;20443;-69
2023/05/05 12:47:10;;;;;;;56.80;1.90;;;;;;;;;;5071364;28;20444;-69
2023/05/05 12:49:48;;;;;;;57.57;2.70;;;;;;;;;;5071302;28;20462;-69
2023/05/05 12:52:16;;;;;;;57.30;2.20;;;;;;;;;;5071287;28;20940;-69
2023/05/05 12:54:55;;;;;;;56.70;2.13;;;;;;;;;;5071331;28;20435;-69
2023/05/05 12:57:23;;;;;;;56.57;1.83;;;;;;;;;;5071289;28;20447;-69
2023/05/05 12:59:51;;;;;;;57.70;2.43;;;;;;;;;;5070798;28;20570;-69
2023/05/05 13:02:19;;;;;;;56.67;2.10;;;;;;;;;;5075232;28;20455;-69
2023/05/05 13:04:51;;;;;;;60.13;3.03;;;;;;;;;;5075283;28;20453;-69
2023/05/05 13:07:19;;;;;;;56.70;1.80;;;;;;;;;;5074984;28;20443;-69
2023/05/05 13:09:47;;;;;;;56.60;2.00;;;;;;;;;;5074479;28;20459;-69
2023/05/05 13:12:15;;;;;;;56.43;2.00;;;;;;;;;;5074728;28;20449;-69
2023/05/05 13:14:42;;;;;;;56.90;2.00;;;;;;;;;;5074620;28;20447;-69
2023/05/05 13:17:10;;;;;;;56.93;2.43;;;;;;;;;;5074834;28;20453;-69
2023/05/05 13:19:40;;;;;;;56.17;2.00;;;;;;;;;;5074336;28;20470;-69
2023/05/05 13:22:09;;;;;;;56.40;2.10;;;;;;;;;;5074683;28;20517;-69
2023/05/05 13:24:36;;;;;;;56.87;1.80;;;;;;;;;;5074486;28;20842;-69
2023/05/05 13:27:04;;;;;;;56.47;2.53;;;;;;;;;;5074330;28;20451;-69
2023/05/05 13:29:31;;;;;;;57.30;2.60;;;;;;;;;;5074179;28;20475;-69
2023/05/05 13:31:58;;;;;;;56.70;1.80;;;;;;;;;;5074555;28;20473;-69
2023/05/05 13:34:26;;;;;;;56.47;1.77;;;;;;;;;;5074439;28;20461;-69
2023/05/05 13:36:53;;;;;;;56.40;2.17;;;;;;;;;;5074314;28;20968;-69
2023/05/05 13:39:21;;;;;;;57.20;2.50;;;;;;;;;;5073579;28;20443;-69
2023/05/05 13:41:48;;;;;;;56.87;2.27;;;;;;;;;;5074270;28;20503;-69
2023/05/05 13:44:16;;;;;;;56.77;2.20;;;;;;;;;;5074107;28;20943;-69
2023/05/05 13:46:43;;;;;;;56.87;1.90;;;;;;;;;;5074041;28;20451;-69
2023/05/05 13:49:11;;;;;;;56.10;1.80;;;;;;;;;;5073760;28;20448;-69
2023/05/05 13:51:38;;;;;;;56.60;2.53;;;;;;;;;;5073984;28;20469;-69
2023/05/05 13:54:05;;;;;;;56.77;2.00;;;;;;;;;;5073880;28;20440;-69
2023/05/05 13:56:34;;;;;;;56.83;1.87;;;;;;;;;;5074133;28;20822;-69
2023/05/05 13:59:01;;;;;;;57.00;2.03;;;;;;;;;;5073706;28;20800;-69
2023/05/05 14:01:29;;;;;;;57.83;2.53;;;;;;;;;;5073775;28;20526;-69
2023/05/05 14:03:56;;;;;;;56.17;1.60;;;;;;;;;;5073820;28;20877;-69
2023/05/05 14:06:23;;;;;;;56.50;1.87;;;;;;;;;;5073767;28;20447;-69
2023/05/05 14:08:50;;;;;;;56.50;2.50;;;;;;;;;;5073329;28;20450;-69
2023/05/05 14:11:19;;;;;;;56.60;1.87;;;;;;;;;;5073291;28;20467;-69
2023/05/05 14:13:48;;;;;;;57.00;2.33;;;;;;;;;;5073231;28;20452;-69
2023/05/05 14:16:15;;;;;;;57.10;1.93;;;;;;;;;;5073426;28;20966;-69
2023/05/05 14:18:42;;;;;;;56.70;2.00;;;;;;;;;;5073153;28;20450;-69
2023/05/05 14:21:10;;;;;;;56.67;2.00;;;;;;;;;;5073252;28;20855;-69
2023/05/05 14:23:37;;;;;;;58.37;2.00;;;;;;;;;;5073213;28;20508;-69
2023/05/05 14:26:04;;;;;;;56.57;1.80;;;;;;;;;;5073663;28;20451;-69
2023/05/05 14:28:31;;;;;;;57.10;2.10;;;;;;;;;;5073145;28;20949;-69
2023/05/05 14:30:59;;;;;;;57.50;2.30;;;;;;;;;;5073139;28;20471;-69
2023/05/05 14:33:26;;;;;;;58.37;2.00;;;;;;;;;;5073168;28;20447;-70
2023/05/05 14:35:54;;;;;;;56.77;1.83;;;;;;;;;;5073002;28;20458;-69
2023/05/05 14:38:22;;;;;;;56.77;1.90;;;;;;;;;;5073007;28;20498;-69